Time;durP1;ratioP1;P1;durP2;ratioP2;P2;SDS_P1;SDS_P2;PMS_P1;PMS_P2;Temp;Humidity;BMP_temperature;BMP_pressure;BME280_temperature;BME280_humidity;BME280_pressure;Samples;Min_cycle;Max_cycle;Signal;HPM_P1;HPM_P2
2022/11/20 08:34:48;;;;;;;;;3.00;3.00;;;;;19.23;39.15;100740.00;5059123;28;45390;-55
2022/11/20 08:37:13;;;;;;;;;3.25;3.00;;;;;19.20;39.10;100730.47;5060000;28;45496;-56
2022/11/20 08:39:39;;;;;;;;;1.00;1.00;;;;;19.20;38.83;100727.00;5058809;28;46083;-56
2022/11/20 08:42:08;;;;;;;;;2.50;2.00;;;;;19.19;38.54;100720.03;5058936;28;45444;-56
2022/11/20 08:44:33;;;;;;;;;5.00;2.00;;;;;19.15;38.78;100724.63;5058740;28;45350;-56
2022/11/20 08:46:59;;;;;;;;;2.67;1.33;;;;;19.19;39.10;100726.13;5059012;28;45631;-56
2022/11/20 08:49:25;;;;;;;;;3.00;3.00;;;;;19.18;39.05;100718.34;5058814;28;46385;-56
2022/11/20 08:51:53;;;;;;;;;3.00;3.00;;;;;19.18;39.01;100719.22;5058484;28;61046;-56
2022/11/20 08:54:21;;;;;;;;;3.25;2.00;;;;;19.19;39.19;100730.56;5064714;28;45441;-56
2022/11/20 08:56:46;;;;;;;;;2.25;2.25;;;;;19.19;38.96;100730.56;5069936;28;45477;-56
2022/11/20 08:59:12;;;;;;;;;5.25;4.00;;;;;19.18;38.81;100711.31;5072113;28;47034;-56
2022/11/20 09:01:37;;;;;;;;;1.25;1.25;;;;;19.16;39.00;100710.56;5063590;28;52483;-56
2022/11/20 09:04:04;;;;;;;;;4.33;2.00;;;;;19.18;38.70;100707.84;5058109;28;61936;-56
2022/11/20 09:06:29;;;;;;;;;3.00;3.00;;;;;19.18;38.68;100702.59;5059336;28;45462;-56
2022/11/20 09:08:55;;;;;;;;;2.75;2.00;;;;;19.17;38.68;100699.13;5058955;28;53919;-55
2022/11/20 09:11:21;;;;;;;;;3.50;3.00;;;;;19.16;38.92;100705.28;5063865;28;45383;-56
2022/11/20 09:13:46;;;;;;;;;4.00;3.00;;;;;19.16;38.57;100700.88;5084361;28;44672;-57
2022/11/20 09:16:11;;;;;;;;;2.00;2.00;;;;;19.15;39.01;100691.28;5075111;28;45173;-56
2022/11/20 09:18:37;;;;;;;;;2.00;2.00;;;;;19.15;39.03;100686.03;5058126;28;58044;-55
2022/11/20 09:21:10;;;;;;;;;3.75;3.50;;;;;19.15;38.97;100682.56;5058541;28;45382;-56
2022/11/20 09:23:36;;;;;;;;;4.00;3.50;;;;;19.13;38.75;100679.19;5062132;28;45390;-56
2022/11/20 09:26:07;;;;;;;;;6.00;4.00;;;;;19.11;38.64;100676.63;5077087;28;45352;-56
2022/11/20 09:28:32;;;;;;;;;3.75;3.25;;;;;19.15;39.17;100685.22;5070535;28;45318;-55
2022/11/20 09:30:59;;;;;;;;;3.75;3.75;;;;;19.11;38.72;100666.13;5058214;28;58148;-56
2022/11/20 09:33:24;;;;;;;;;3.25;3.00;;;;;19.11;38.73;100667.91;5071780;28;45398;-56
2022/11/20 09:35:49;;;;;;;;;3.50;3.50;;;;;19.13;38.90;100664.25;5081614;28;44927;-56
2022/11/20 09:38:15;;;;;;;;;3.00;3.00;;;;;19.10;38.86;100653.06;5058599;28;46120;-56
2022/11/20 09:40:48;;;;;;;;;3.50;3.00;;;;;19.12;38.91;100657.31;5060130;28;45528;-55
2022/11/20 09:43:20;;;;;;;;;2.00;2.00;;;;;19.11;38.58;100655.63;5059343;28;45450;-56
2022/11/20 09:46:28;;;;;;;;;4.00;3.00;;;;;19.10;39.14;100656.56;5059040;28;45259;-56
2022/11/20 09:49:15;;;;;;;;;4.25;3.00;;;;;19.10;39.19;100653.06;5049800;28;45513;-56
2022/11/20 09:51:52;;;;;;;;;2.50;2.50;;;;;19.09;38.82;100657.47;5057677;28;45887;-56
2022/11/20 09:54:20;;;;;;;;;4.00;3.00;;;;;19.07;38.74;100648.81;5057960;28;45334;-55
2022/11/20 09:56:58;;;;;;;;;4.00;4.00;;;;;19.07;39.15;100648.81;5058488;28;45349;-55
2022/11/20 09:59:33;;;;;;;;;4.50;4.50;;;;;19.07;38.89;100654.06;5063347;28;45265;-56
2022/11/20 10:02:00;;;;;;;;;5.00;5.00;;;;;19.07;39.27;100661.94;5077021;28;45219;-56
2022/11/20 10:04:28;;;;;;;;;3.25;3.25;;;;;19.08;38.89;100655.78;5068542;28;45246;-56
2022/11/20 10:07:12;;;;;;;;;4.50;4.50;;;;;19.05;38.74;100645.41;5058765;28;45387;-56
2022/11/20 10:09:43;;;;;;;;;6.50;3.25;;;;;19.07;39.29;100648.81;5057636;28;46449;-56
2022/11/20 10:12:27;;;;;;;;;3.50;3.00;;;;;19.06;38.76;100649.75;5057277;28;45208;-56
2022/11/20 10:15:09;;;;;;;;;3.00;3.00;;;;;19.05;39.06;100645.41;5039631;28;45229;-56
2022/11/20 10:17:58;;;;;;;;;4.00;4.00;;;;;19.07;39.03;100642.72;5058002;28;45421;-57
2022/11/20 10:20:30;;;;;;;;;3.25;3.25;;;;;19.05;39.23;100628.81;5058779;28;46492;-56
2022/11/20 10:23:23;;;;;;;;;3.25;3.25;;;;;19.06;39.19;100631.34;5059124;28;45975;-56
2022/11/20 10:26:00;;;;;;;;;3.00;3.00;;;;;19.05;39.21;100621.78;5057551;28;45414;-57
2022/11/20 10:28:40;;;;;;;;;3.00;3.00;;;;;19.05;39.37;100618.31;5058579;28;45350;-55
2022/11/20 10:31:14;;;;;;;;;5.00;5.00;;;;;19.04;39.37;100612.19;5057367;28;46185;-56
2022/11/20 10:33:44;;;;;;;;;3.75;3.00;;;;;19.05;39.44;100607.81;5057081;28;45395;-57
2022/11/20 10:36:12;;;;;;;;;4.00;4.00;;;;;19.02;39.60;100598.28;5056050;28;45346;-57
2022/11/20 10:38:51;;;;;;;;;3.25;3.25;;;;;19.02;39.43;100598.28;5057481;28;45541;-57
2022/11/20 10:41:26;;;;;;;;;2.00;1.75;;;;;19.04;39.19;100601.69;5063679;28;46157;-56
2022/11/20 10:44:09;;;;;;;;;3.50;2.00;;;;;19.04;39.43;100596.44;5066793;28;45722;-57
2022/11/20 10:46:43;;;;;;;;;5.50;4.00;;;;;19.04;39.51;100600.84;5056927;28;45267;-55
2022/11/20 10:49:19;;;;;;;;;5.00;4.00;;;;;19.04;39.70;100601.69;5057339;28;45283;-57
2022/11/20 10:52:02;;;;;;;;;3.50;3.50;;;;;19.03;39.54;100600.00;5057753;28;46243;-55
2022/11/20 10:54:52;;;;;;;;;3.00;3.00;;;;;19.03;39.50;100592.13;5059260;28;45735;-54
2022/11/20 10:57:46;;;;;;;;;3.25;3.25;;;;;19.02;39.43;100584.31;5079322;28;45567;-55
2022/11/20 11:00:13;;;;;;;;;3.00;3.00;;;;;19.01;39.37;100586.13;5062871;28;45351;-56
2022/11/20 11:02:38;;;;;;;;;4.75;4.00;;;;;19.03;39.47;100586.84;5078574;28;47229;-53
2022/11/20 11:05:16;;;;;;;;;5.00;4.00;;;;;19.02;39.48;100582.53;5062908;28;49437;-56
2022/11/20 11:07:42;;;;;;;;;4.50;3.00;;;;;19.03;39.46;100575.53;5057262;28;45452;-56
2022/11/20 11:10:17;;;;;;;;;1.25;1.00;;;;;19.01;39.82;100575.59;5057400;28;45656;-56
2022/11/20 11:12:50;;;;;;;;;3.00;3.00;;;;;19.03;39.94;100565.84;5056911;28;47158;-55
2022/11/20 11:15:30;;;;;;;;;2.25;2.25;;;;;19.03;39.80;100563.22;5057439;28;45998;-57
2022/11/20 11:17:56;;;;;;;;;2.00;2.00;;;;;19.04;39.85;100561.47;5057220;28;45336;-56
2022/11/20 11:20:24;;;;;;;;;5.00;4.00;;;;;19.03;39.86;100560.59;5060009;28;45297;-56
2022/11/20 11:22:53;;;;;;;;;3.50;3.00;;;;;19.00;39.76;100550.28;5057030;28;46110;-56
2022/11/20 11:25:29;;;;;;;;;5.50;3.50;;;;;19.02;39.81;100544.94;5058033;28;45331;-57
2022/11/20 11:27:59;;;;;;;;;3.00;3.00;;;;;19.02;39.75;100545.75;5070776;28;45235;-59
2022/11/20 11:30:27;;;;;;;;;3.75;2.25;;;;;19.02;39.68;100544.94;5076124;28;45713;-57
2022/11/20 11:33:09;;;;;;;;;5.00;3.50;;;;;19.03;40.13;100547.47;5074729;28;47069;-56
2022/11/20 11:35:49;;;;;;;;;3.50;3.50;;;;;19.02;39.84;100553.63;5057358;28;45464;-62
2022/11/20 11:38:19;;;;;;;;;2.50;2.50;;;;;19.02;39.79;100544.94;5059121;28;45284;-58
2022/11/20 11:40:46;;;;;;;;;2.25;2.25;;;;;19.03;40.23;100551.88;5058474;28;45358;-61
2022/11/20 11:46:23;;;;;;;;;2.75;2.25;;;;;19.03;40.35;100529.06;5064093;28;45359;-57
2022/11/20 11:49:03;;;;;;;;;2.25;2.25;;;;;19.08;40.33;100534.94;5083368;28;45419;-59
2022/11/20 11:51:39;;;;;;;;;2.00;2.00;;;;;19.10;40.24;100527.84;5080417;28;45232;-56
2022/11/20 11:54:16;;;;;;;;;2.25;2.25;;;;;19.13;40.21;100522.38;5072784;28;46330;-56
2022/11/20 11:56:42;;;;;;;;;2.50;2.25;;;;;19.16;40.35;100516.97;5061248;28;45222;-56
2022/11/20 11:59:15;;;;;;;;;2.50;2.50;;;;;19.22;40.66;100520.22;5062109;28;45428;-56
2022/11/20 12:01:47;;;;;;;;;3.00;2.00;;;;;19.27;40.17;100518.16;5061979;28;45396;-56
2022/11/20 12:04:41;;;;;;;;;2.00;2.00;;;;;19.31;40.48;100507.41;5060005;28;47217;-57
2022/11/20 12:07:27;;;;;;;;;3.00;2.00;;;;;19.33;40.66;100496.81;5061564;28;45460;-56
2022/11/20 12:09:56;;;;;;;;;1.50;1.50;;;;;19.37;40.25;100495.69;5060023;28;45307;-56
2022/11/20 12:12:32;;;;;;;;;2.00;2.00;;;;;19.39;40.08;100485.94;5059870;28;45637;-56
2022/11/20 12:14:58;;;;;;;;;2.75;1.75;;;;;19.47;40.26;100503.94;5059635;28;45655;-56
2022/11/20 12:17:24;;;;;;;;;2.00;2.00;;;;;19.48;40.48;100487.22;5063376;28;45332;-55
2022/11/20 12:19:49;;;;;;;;;2.25;2.00;;;;;19.53;40.28;100481.72;5064606;28;45363;-56
2022/11/20 12:22:31;;;;;;;;;2.00;2.00;;;;;19.57;40.17;100480.56;5060782;28;45252;-55
2022/11/20 12:25:26;;;;;;;;;1.50;1.50;;;;;19.61;40.00;100488.22;5059708;28;45430;-56
2022/11/20 12:28:04;;;;;;;;;1.50;1.50;;;;;19.64;40.22;100489.84;5064506;28;45262;-56
2022/11/20 12:30:33;;;;;;;;;1.25;1.25;;;;;19.66;40.05;100493.22;5075381;28;45396;-56
2022/11/20 12:33:19;;;;;;;;;2.00;2.00;;;;;19.69;39.93;100492.19;5060745;28;45414;-55
2022/11/20 12:36:12;;;;;;;;;2.00;2.00;;;;;19.68;40.00;100483.44;5059252;28;45477;-55
2022/11/20 12:38:46;;;;;;;;;2.00;2.00;;;;;19.72;40.30;100499.91;5059700;28;45701;-55
2022/11/20 12:47:44;;;;;;;;;2.50;2.00;;;;;19.73;40.16;100496.34;5058983;28;45510;-54
2022/11/20 12:50:12;;;;;;;;;2.00;1.00;;;;;19.74;39.79;100500.66;5066395;28;45529;-56
2022/11/20 12:53:01;;;;;;;;;2.00;2.00;;;;;19.74;40.37;100506.78;5082010;28;44788;-55
2022/11/20 12:55:46;;;;;;;;;2.25;2.00;;;;;19.75;39.82;100502.34;5060475;28;45496;-56
2022/11/20 12:58:20;;;;;;;;;1.00;1.00;;;;;19.74;40.01;100504.16;5058944;28;45469;-57
2022/11/20 13:01:00;;;;;;;;;1.75;1.75;;;;;19.73;40.51;100510.34;5058727;28;45823;-56
2022/11/20 13:03:38;;;;;;;;;2.25;2.25;;;;;19.73;40.19;100512.97;5058773;28;45198;-55
2022/11/20 13:06:17;;;;;;;;;1.75;1.75;;;;;19.76;39.98;100511.94;5057954;28;45530;-55
2022/11/20 13:08:52;;;;;;;;;2.00;2.00;;;;;19.74;40.12;100509.41;5058531;28;46081;-56
2022/11/20 13:11:37;;;;;;;;;2.00;2.00;;;;;19.77;40.06;100484.72;5057586;28;45301;-56
2022/11/20 13:14:18;;;;;;;;;2.00;2.00;;;;;19.77;40.62;100480.31;5059249;28;45331;-56
2022/11/20 13:16:58;;;;;;;;;3.00;1.00;;;;;19.77;40.51;100469.78;5065610;28;45348;-56
2022/11/20 13:19:24;;;;;;;;;2.25;2.00;;;;;19.77;40.49;100468.94;5084244;28;45224;-56
2022/11/20 13:21:50;;;;;;;;;3.00;2.00;;;;;19.76;40.50;100475.13;5060136;28;45205;-56
2022/11/20 13:24:18;;;;;;;;;2.00;2.00;;;;;19.77;40.27;100485.56;5060965;28;45397;-56
2022/11/20 13:26:43;;;;;;;;;2.00;1.50;;;;;19.75;40.34;100490.06;5060748;28;45400;-57
2022/11/20 13:29:15;;;;;;;;;3.00;2.00;;;;;19.74;40.18;100491.00;5061347;28;45971;-56
2022/11/20 13:31:44;;;;;;;;;3.00;2.00;;;;;19.77;40.16;100501.34;5071988;28;45231;-56
2022/11/20 13:34:22;;;;;;;;;1.50;1.25;;;;;19.77;40.60;100501.34;5071065;28;45315;-57
2022/11/20 13:36:53;;;;;;;;;2.25;1.75;;;;;19.77;40.27;100495.22;5065001;28;45207;-56
2022/11/20 13:39:31;;;;;;;;;1.00;1.00;;;;;19.75;40.58;100497.09;5064141;28;46618;-56
2022/11/20 13:41:59;;;;;;;;;1.50;1.50;;;;;19.75;40.12;100491.84;5059647;28;45887;-55
2022/11/20 13:44:37;;;;;;;;;1.75;1.75;;;;;19.75;40.27;100487.44;5060248;28;45276;-57
2022/11/20 13:47:03;;;;;;;;;1.00;1.00;;;;;19.75;40.32;100497.97;5058929;28;45320;-57
2022/11/20 13:49:40;;;;;;;;;2.50;2.50;;;;;19.75;40.70;100511.09;5059230;28;45425;-56
2022/11/20 13:52:41;;;;;;;;;1.75;1.75;;;;;19.75;40.57;100500.59;5058762;28;45747;-55
2022/11/20 13:55:23;;;;;;;;;2.00;1.00;;;;;19.75;40.52;100505.84;5061332;28;45318;-56
2022/11/20 13:58:33;;;;;;;;;1.00;1.00;;;;;19.73;40.20;100494.56;5061099;28;45292;-56
2022/11/20 14:01:21;;;;;;;;;3.00;2.00;;;;;19.73;40.24;100499.81;5053876;28;45520;-57
2022/11/20 14:03:47;;;;;;;;;2.00;2.00;;;;;19.74;40.22;100493.63;5068989;28;45789;-55
2022/11/20 14:06:29;;;;;;;;;2.00;2.00;;;;;19.74;40.66;100488.38;5078313;28;45370;-57
2022/11/20 14:08:56;;;;;;;;;2.25;2.00;;;;;19.71;40.67;100491.16;5076721;28;44752;-57
2022/11/20 14:11:26;;;;;;;;;1.00;1.00;;;;;19.72;40.33;100498.13;5069637;28;46625;-56
2022/11/20 14:13:56;;;;;;;;;3.75;2.25;;;;;19.72;40.44;100487.59;5061048;28;46027;-57
2022/11/20 14:16:22;;;;;;;;;2.00;2.00;;;;;19.71;40.45;100485.06;5059998;28;45453;-56
2022/11/20 14:18:48;;;;;;;;;2.75;2.00;;;;;19.72;40.72;100487.59;5060381;28;45463;-57
2022/11/20 14:21:29;;;;;;;;;2.25;2.00;;;;;19.72;40.65;100481.50;5057598;28;47662;-57
2022/11/20 14:24:10;;;;;;;;;1.25;1.25;;;;;19.71;40.43;100485.91;5058777;28;45965;-57
2022/11/20 14:26:41;;;;;;;;;2.25;2.25;;;;;19.71;40.38;100485.91;5058263;28;45303;-56
2022/11/20 14:29:16;;;;;;;;;3.75;2.75;;;;;19.70;40.69;100478.13;5058041;28;45318;-57
2022/11/20 14:31:44;;;;;;;;;2.00;2.00;;;;;19.68;40.54;100475.56;5057983;28;45412;-57
2022/11/20 14:34:17;;;;;;;;;3.00;1.75;;;;;19.68;40.45;100472.94;5058165;28;45232;-57
2022/11/20 14:36:43;;;;;;;;;2.50;2.50;;;;;19.68;40.82;100479.97;5058167;28;45276;-63
2022/11/20 14:39:22;;;;;;;;;3.00;2.00;;;;;19.67;40.76;100481.78;5058515;28;45253;-56
2022/11/20 14:41:52;;;;;;;;;1.00;1.00;;;;;19.63;40.63;100473.19;5079167;28;45326;-56
2022/11/20 14:44:19;;;;;;;;;2.00;2.00;;;;;19.66;41.09;100493.22;5064895;28;45439;-56
2022/11/20 14:46:45;;;;;;;;;2.00;2.00;;;;;19.66;40.71;100487.09;5059414;28;45308;-56
2022/11/20 14:49:11;;;;;;;;;2.00;2.00;;;;;19.63;40.70;100493.38;5071829;28;45518;-56
2022/11/20 14:51:42;;;;;;;;;3.50;2.00;;;;;19.65;41.17;100496.78;5076943;28;45259;-56
2022/11/20 14:54:10;;;;;;;;;1.75;1.75;;;;;19.65;41.00;100499.41;5065628;28;45342;-57
2022/11/20 14:56:35;;;;;;;;;2.00;2.00;;;;;19.65;41.04;100504.69;5060109;28;45164;-57
2022/11/20 14:59:00;;;;;;;;;2.00;2.00;;;;;19.65;40.95;100509.06;5058833;28;45232;-56
2022/11/20 15:01:28;;;;;;;;;1.00;1.00;;;;;19.62;40.49;100520.63;5056694;28;47285;-56
2022/11/20 15:04:09;;;;;;;;;2.00;2.00;;;;;19.63;40.89;100530.19;5057529;28;45559;-57
2022/11/20 15:06:35;;;;;;;;;2.00;1.25;;;;;19.60;41.11;100523.34;5061063;28;45348;-57
2022/11/20 15:09:03;;;;;;;;;2.00;1.75;;;;;19.63;40.76;100530.19;5060281;28;45239;-57
2022/11/20 15:11:35;;;;;;;;;2.00;2.00;;;;;19.62;41.17;100523.25;5059308;28;46165;-56
2022/11/20 15:14:06;;;;;;;;;1.25;1.25;;;;;19.61;41.10;100526.81;5061812;28;45888;-56
2022/11/20 15:16:32;;;;;;;;;2.50;2.00;;;;;19.61;40.78;100532.06;5063001;28;45443;-56
2022/11/20 15:18:59;;;;;;;;;1.50;1.50;;;;;19.58;40.97;100526.97;5062293;28;45516;-56
2022/11/20 15:21:25;;;;;;;;;2.00;2.00;;;;;19.60;40.98;100531.22;5061154;28;45279;-56
2022/11/20 15:23:50;;;;;;;;;1.25;1.25;;;;;19.58;40.92;100527.84;5062534;28;45308;-56
2022/11/20 15:26:27;;;;;;;;;0.50;0.00;;;;;19.60;40.80;100544.38;5055734;28;45429;-55
2022/11/20 15:28:53;;;;;;;;;2.00;2.00;;;;;19.60;40.87;100540.88;5056990;28;45430;-56
2022/11/20 15:31:23;;;;;;;;;2.00;2.00;;;;;19.59;41.33;100549.69;5056862;28;46215;-56
2022/11/20 15:33:49;;;;;;;;;2.00;2.00;;;;;19.57;40.71;100546.28;5065062;28;45251;-56
2022/11/20 15:36:14;;;;;;;;;1.50;1.50;;;;;19.58;41.10;100540.97;5070648;28;45356;-56
2022/11/20 15:38:40;;;;;;;;;3.75;2.75;;;;;19.57;40.96;100541.03;5056999;28;45601;-57
2022/11/20 15:41:05;;;;;;;;;2.00;2.00;;;;;19.54;41.06;100539.44;5056127;28;46243;-55
2022/11/20 15:43:31;;;;;;;;;3.00;1.25;;;;;19.56;41.02;100550.72;5056078;28;45450;-56
2022/11/20 15:46:11;;;;;;;;;1.50;1.50;;;;;19.55;41.26;100546.41;5055147;28;45350;-56
2022/11/20 15:48:39;;;;;;;;;1.75;1.50;;;;;19.55;41.01;100548.19;5056476;28;45393;-58
2022/11/20 15:51:11;;;;;;;;;3.00;3.00;;;;;19.56;41.39;100547.25;5054774;28;47432;-57
2022/11/20 15:53:41;;;;;;;;;3.50;3.00;;;;;19.55;41.37;100556.06;5056207;28;45351;-56
2022/11/20 15:56:11;;;;;;;;;2.00;2.00;;;;;19.54;41.37;100546.50;5056715;28;45352;-57
2022/11/20 15:58:37;;;;;;;;;2.00;2.00;;;;;19.53;41.10;100561.41;5056525;28;45378;-57
2022/11/20 16:01:02;;;;;;;;;2.00;2.00;;;;;19.53;41.24;100565.81;5056602;28;46098;-57
2022/11/20 16:03:27;;;;;;;;;1.00;1.00;;;;;19.51;41.06;100557.16;5055383;28;61681;-57
2022/11/20 16:05:53;;;;;;;;;2.50;2.50;;;;;19.53;41.00;100563.19;5063302;28;45353;-56
2022/11/20 16:08:18;;;;;;;;;4.75;3.00;;;;;19.51;41.06;100559.81;5070966;28;45780;-57
2022/11/20 16:10:43;;;;;;;;;2.00;1.25;;;;;19.51;41.38;100560.66;5070113;28;45290;-55
2022/11/20 16:16:04;;;;;;;;;1.25;1.25;;;;;19.50;41.28;100572.09;5074754;28;44792;-56
2022/11/20 16:18:30;;;;;;;;;1.25;1.00;;;;;19.50;41.06;100571.25;5075206;28;44947;-56
2022/11/20 16:20:56;;;;;;;;;4.00;2.00;;;;;19.49;41.05;100565.16;5067738;28;47237;-56
2022/11/20 16:23:21;;;;;;;;;2.25;2.25;;;;;19.50;41.03;100581.75;5060527;28;45316;-56
2022/11/20 16:25:47;;;;;;;;;1.25;1.25;;;;;19.49;41.42;100588.81;5057386;28;45384;-55
2022/11/20 16:28:13;;;;;;;;;1.25;1.25;;;;;19.49;41.58;100591.44;5057258;28;45528;-55
2022/11/20 16:30:39;;;;;;;;;2.00;2.00;;;;;19.49;41.47;100580.91;5071762;28;45570;-56
2022/11/20 16:33:09;;;;;;;;;0.00;0.00;;;;;19.46;41.47;100575.81;5068484;28;45758;-57
2022/11/20 16:35:34;;;;;;;;;2.00;2.00;;;;;19.47;41.19;100591.50;5056178;28;45241;-56
2022/11/20 16:37:59;;;;;;;;;2.00;2.00;;;;;19.46;41.12;100576.66;5055470;28;50395;-57
2022/11/20 16:40:25;;;;;;;;;3.00;1.00;;;;;19.45;40.99;100584.63;5055537;28;46279;-58
2022/11/20 16:42:53;;;;;;;;;1.25;1.25;;;;;19.44;41.48;100588.19;5057372;28;45266;-56
2022/11/20 16:45:18;;;;;;;;;2.00;2.00;;;;;19.46;41.46;100587.16;5059589;28;45335;-57
2022/11/20 16:47:44;;;;;;;;;1.00;1.00;;;;;19.43;41.29;100579.47;5060122;28;45429;-56
2022/11/20 16:50:10;;;;;;;;;2.00;2.00;;;;;19.42;41.10;100567.25;5058829;28;46799;-56
2022/11/20 16:52:36;;;;;;;;;1.50;1.00;;;;;19.44;41.52;100578.56;5058927;28;45415;-55
2022/11/20 16:55:04;;;;;;;;;1.00;1.00;;;;;19.44;41.43;100575.91;5059301;28;45410;-56
2022/11/20 16:57:32;;;;;;;;;2.00;1.00;;;;;19.44;40.89;100577.69;5060610;28;45275;-56
2022/11/20 16:59:59;;;;;;;;;2.25;2.25;;;;;19.43;41.05;100582.09;5059155;28;46413;-56
2022/11/20 17:02:24;;;;;;;;;1.00;1.00;;;;;19.41;40.94;100576.06;5062985;28;46026;-55
2022/11/20 17:04:51;;;;;;;;;2.00;2.00;;;;;19.41;41.31;100585.72;5075172;28;45319;-55
2022/11/20 17:07:19;;;;;;;;;4.25;2.25;;;;;19.40;41.34;100577.00;5077163;28;45360;-54
2022/11/20 17:09:44;;;;;;;;;2.00;2.00;;;;;19.36;41.51;100558.88;5062652;28;45315;-55
2022/11/20 17:12:10;;;;;;;;;1.75;1.00;;;;;19.38;41.13;100573.63;5059373;28;45284;-56
2022/11/20 17:14:35;;;;;;;;;4.00;1.50;;;;;19.40;41.56;100570.91;5059074;28;45617;-56
2022/11/20 17:17:02;;;;;;;;;2.25;2.25;;;;;19.40;41.46;100565.66;5065079;28;45240;-56
2022/11/20 17:19:27;;;;;;;;;1.25;1.25;;;;;19.39;41.46;100575.31;5070296;28;46044;-57
2022/11/20 17:21:53;;;;;;;;;1.00;1.00;;;;;19.39;41.50;100566.59;5060177;28;45426;-55
2022/11/20 17:24:18;;;;;;;;;2.00;2.00;;;;;19.38;40.96;100578.03;5058527;28;54736;-55
2022/11/20 17:26:44;;;;;;;;;2.00;1.75;;;;;19.38;41.57;100580.66;5058650;28;45432;-57
2022/11/20 17:29:15;;;;;;;;;2.00;2.00;;;;;19.37;41.58;100566.66;5058768;28;46085;-56
2022/11/20 17:31:44;;;;;;;;;1.00;1.00;;;;;19.34;41.41;100577.34;5059031;28;45762;-55
2022/11/20 17:34:14;;;;;;;;;2.00;2.00;;;;;19.37;41.22;100586.84;5058831;28;45407;-56
2022/11/20 17:36:43;;;;;;;;;2.00;2.00;;;;;19.35;41.01;100583.44;5058520;28;45402;-56
2022/11/20 17:39:10;;;;;;;;;1.00;1.00;;;;;19.36;41.10;100591.25;5057927;28;46314;-56
2022/11/20 17:41:35;;;;;;;;;2.25;2.25;;;;;19.35;41.28;100594.78;5056954;28;45360;-56
2022/11/20 17:44:01;;;;;;;;;2.25;2.00;;;;;19.35;41.26;100610.56;5057227;28;56840;-56
2022/11/20 17:46:29;;;;;;;;;2.00;2.00;;;;;19.35;40.93;100610.56;5058286;28;45373;-56
2022/11/20 17:48:55;;;;;;;;;1.25;1.25;;;;;19.31;41.02;100609.88;5057900;28;45645;-55
2022/11/20 17:51:23;;;;;;;;;1.00;1.00;;;;;19.35;41.40;100605.31;5058331;28;45181;-56
2022/11/20 17:53:54;;;;;;;;;2.75;2.00;;;;;19.33;41.48;100607.19;5058142;28;45394;-56
2022/11/20 17:59:08;;;;;;;;;2.25;1.00;;;;;19.32;41.58;100602.88;5058130;28;45726;-56
2022/11/20 18:01:34;;;;;;;;;1.50;1.25;;;;;19.31;41.05;100614.31;5057777;28;45729;-56
2022/11/20 18:03:59;;;;;;;;;3.25;1.75;;;;;19.29;41.57;100619.63;5056899;28;46027;-57
2022/11/20 18:06:27;;;;;;;;;1.25;1.25;;;;;19.26;41.05;100617.19;5058434;28;45477;-57
2022/11/20 18:08:52;;;;;;;;;2.00;2.00;;;;;19.29;41.26;100627.50;5058428;28;46363;-56
2022/11/20 18:11:19;;;;;;;;;2.00;2.00;;;;;19.29;41.09;100629.28;5058302;28;45414;-56
2022/11/20 18:16:32;;;;;;;;;2.00;1.75;;;;;19.30;41.34;100633.63;5058152;28;45380;-54
2022/11/20 18:18:58;;;;;;;;;2.25;2.00;;;;;19.27;41.29;100626.75;5063140;28;46625;-55
2022/11/20 18:21:26;;;;;;;;;2.75;2.00;;;;;19.29;41.43;100629.28;5081164;28;45128;-56
2022/11/20 18:23:53;;;;;;;;;2.25;2.25;;;;;19.29;41.40;100637.19;5063217;28;45307;-57
2022/11/20 18:26:18;;;;;;;;;2.00;2.00;;;;;19.28;41.49;100632.84;5058383;28;45559;-57
2022/11/20 18:28:44;;;;;;;;;4.50;2.00;;;;;19.28;41.14;100635.47;5057997;28;46144;-57
2022/11/20 18:31:11;;;;;;;;;3.00;2.00;;;;;19.26;41.65;100627.69;5057690;28;45230;-56
2022/11/20 18:33:36;;;;;;;;;2.75;2.75;;;;;19.26;41.16;100632.94;5057815;28;45280;-55
2022/11/20 18:36:19;;;;;;;;;2.00;2.00;;;;;19.27;41.41;100633.78;5057683;28;45544;-56
2022/11/20 18:38:48;;;;;;;;;3.00;2.25;;;;;19.24;41.03;100623.44;5058336;28;46348;-56
2022/11/20 18:46:45;;;;;;;;;4.00;1.25;;;;;19.24;41.14;100644.44;5076047;28;44776;-55
2022/11/20 18:49:13;;;;;;;;;3.00;3.00;;;;;19.24;41.02;100644.44;5071530;28;45661;-56
2022/11/20 18:51:39;;;;;;;;;1.50;1.00;;;;;19.25;41.39;100647.00;5068069;28;45216;-55
2022/11/20 18:54:05;;;;;;;;;3.00;3.00;;;;;19.22;41.01;100641.91;5066318;28;45330;-56
2022/11/20 18:56:31;;;;;;;;;4.75;2.25;;;;;19.22;41.18;100647.16;5076289;28;45216;-55
2022/11/20 18:59:04;;;;;;;;;3.00;2.00;;;;;19.23;41.41;100648.03;5063867;28;46840;-56
2022/11/20 19:01:30;;;;;;;;;4.75;3.75;;;;;19.23;41.23;100640.97;5057855;28;45296;-55
2022/11/20 19:03:56;;;;;;;;;4.00;3.00;;;;;19.22;41.47;100643.69;5057229;28;45197;-56
2022/11/20 19:06:21;;;;;;;;;4.50;2.00;;;;;19.19;41.39;100630.72;5057258;28;45343;-56
2022/11/20 19:08:47;;;;;;;;;3.00;3.00;;;;;19.21;41.22;100636.75;5055431;28;46463;-56
2022/11/20 19:11:12;;;;;;;;;3.00;3.00;;;;;19.21;40.84;100639.38;5055990;28;45343;-57
2022/11/20 19:13:38;;;;;;;;;5.00;3.00;;;;;19.21;41.18;100631.50;5056725;28;45572;-55
2022/11/20 19:16:16;;;;;;;;;4.00;3.25;;;;;19.20;41.33;100637.66;5057140;28;45529;-56
2022/11/20 19:18:42;;;;;;;;;3.00;3.00;;;;;19.19;41.32;100634.19;5056542;28;47103;-56
2022/11/20 19:21:14;;;;;;;;;2.50;2.50;;;;;19.19;41.36;100634.19;5062901;28;45485;-55
2022/11/20 19:23:39;;;;;;;;;2.50;2.50;;;;;19.20;41.05;100642.94;5063313;28;45398;-56
2022/11/20 19:26:05;;;;;;;;;3.00;3.00;;;;;19.19;41.53;100633.34;5057591;28;45395;-56
2022/11/20 19:28:32;;;;;;;;;3.75;3.50;;;;;19.20;41.21;100637.66;5056339;28;45900;-56
2022/11/20 19:31:27;;;;;;;;;2.50;2.00;;;;;19.16;40.79;100637.81;5059063;28;45327;-58
2022/11/20 19:33:54;;;;;;;;;3.75;3.50;;;;;19.18;41.30;100634.28;5052946;28;45345;-56
2022/11/20 19:36:26;;;;;;;;;2.00;2.00;;;;;19.16;41.03;100643.06;5058291;28;45544;-56
2022/11/20 19:38:54;;;;;;;;;3.00;3.00;;;;;19.16;41.13;100637.81;5058334;28;45352;-55
2022/11/20 19:41:30;;;;;;;;;0.25;0.00;;;;;19.17;40.95;100636.06;5061392;28;45390;-56
2022/11/20 19:44:00;;;;;;;;;2.25;2.25;;;;;19.17;40.85;100641.31;5071011;28;45505;-56
2022/11/20 19:46:27;;;;;;;;;2.75;2.75;;;;;19.14;41.36;100638.84;5071341;28;44708;-55
2022/11/20 19:48:53;;;;;;;;;3.50;3.00;;;;;19.15;41.29;100633.50;5060422;28;46345;-55
2022/11/20 19:51:24;;;;;;;;;3.00;3.00;;;;;19.15;41.46;100632.66;5056708;28;45312;-57
2022/11/20 19:53:50;;;;;;;;;4.50;2.00;;;;;19.16;41.42;100632.56;5057322;28;45466;-56
2022/11/20 19:56:16;;;;;;;;;4.25;2.50;;;;;19.19;41.22;100626.31;5057458;28;45310;-56
2022/11/20 19:58:42;;;;;;;;;6.25;3.50;;;;;19.22;41.66;100631.41;5057499;28;45499;-55
2022/11/20 20:01:16;;;;;;;;;3.75;2.75;;;;;19.27;41.07;100633.78;5057765;28;45442;-56
2022/11/20 20:03:44;;;;;;;;;4.25;3.00;;;;;19.30;41.15;100625.75;5057825;28;45380;-56
2022/11/20 20:06:12;;;;;;;;;2.25;2.25;;;;;19.35;41.38;100625.50;5063379;28;45613;-55
2022/11/20 20:08:38;;;;;;;;;3.00;3.00;;;;;19.38;41.57;100618.28;5071291;28;46349;-56
2022/11/20 20:11:09;;;;;;;;;3.00;3.00;;;;;19.41;41.22;100620.75;5079288;28;45390;-56
2022/11/20 20:13:35;;;;;;;;;5.75;2.25;;;;;19.46;41.02;100623.13;5067481;28;45250;-56
2022/11/20 20:16:00;;;;;;;;;4.00;4.00;;;;;19.49;41.55;100622.09;5058346;28;45363;-57
2022/11/20 20:18:25;;;;;;;;;3.00;3.00;;;;;19.52;41.04;100621.94;5056355;28;56263;-56
2022/11/20 20:20:51;;;;;;;;;3.00;2.33;;;;;19.55;41.01;100633.16;5064275;28;56429;-56
2022/11/20 20:23:16;;;;;;;;;4.00;3.25;;;;;19.59;41.37;100628.56;5071263;28;45223;-57
2022/11/20 20:25:41;;;;;;;;;5.67;3.33;;;;;19.62;40.88;100620.53;5081063;28;48934;-56
2022/11/20 20:28:06;;;;;;;;;4.00;4.00;;;;;19.64;41.01;100623.91;5082003;28;45217;-56
2022/11/20 20:30:34;;;;;;;;;3.00;2.75;;;;;19.68;41.22;100622.78;5077943;28;45335;-55
2022/11/20 20:32:59;;;;;;;;;2.75;2.00;;;;;19.70;41.19;100639.34;5061905;28;45379;-55
2022/11/20 20:35:24;;;;;;;;;3.33;2.33;;;;;19.69;41.15;100629.75;5060475;28;49920;-56
2022/11/20 20:37:49;;;;;;;;;3.00;3.00;;;;;19.74;41.04;100633.00;5060035;28;46973;-56